Hawk Run, Pennsylvania
Current Conditions -  °F | °C
As of 4:54 AM on Wednesday 26 Nov 2014 (Local Time) from KFIG Reporting Station
Few Clouds Few Clouds  
Wind Chill: 22°   Ceiling: Unl
Heat Index: 29°   Visibility: 10mi
Dew Point: 25°   Wind: 7mph
Humidity: 85%   Direction: 50°NE
Pressure: 30.09"   Gusts: NA
Location:  40.94°N, 78.22°W
Report Text: KFIG 260954Z AUTO 05006KT 10SM FEW120 M02/M04 A3009 RMK AO2 SLP204 T10171039
Loading
Personal Weather Stations






























Interactive Weather Map New forecast layout! Learn more

10-Day Weather Forecast

Advertisements
Track Severe Weather on mobile